sensor_id;sensor_type;location;lat;lon;timestamp;P1;durP1;ratioP1;P2;durP2;ratioP2
4122;SDS011;2075;51.062;6.920;2022-10-17T00:01:52;14.73;;;6.30;;
4122;SDS011;2075;51.062;6.920;2022-10-17T00:04:38;7.30;;;6.30;;
4122;SDS011;2075;51.062;6.920;2022-10-17T00:07:25;10.33;;;6.00;;
4122;SDS011;2075;51.062;6.920;2022-10-17T00:10:10;6.87;;;5.90;;
4122;SDS011;2075;51.062;6.920;2022-10-17T00:12:56;7.83;;;6.10;;
4122;SDS011;2075;51.062;6.920;2022-10-17T00:15:42;7.33;;;6.60;;
4122;SDS011;2075;51.062;6.920;2022-10-17T00:18:27;14.73;;;6.37;;
4122;SDS011;2075;51.062;6.920;2022-10-17T00:21:16;9.00;;;6.80;;
4122;SDS011;2075;51.062;6.920;2022-10-17T00:24:04;8.47;;;6.20;;
4122;SDS011;2075;51.062;6.920;2022-10-17T00:26:49;10.27;;;6.73;;
4122;SDS011;2075;51.062;6.920;2022-10-17T00:29:35;24.23;;;8.00;;
4122;SDS011;2075;51.062;6.920;2022-10-17T00:32:20;15.90;;;7.00;;
4122;SDS011;2075;51.062;6.920;2022-10-17T00:35:06;23.13;;;7.47;;
4122;SDS011;2075;51.062;6.920;2022-10-17T00:37:52;13.93;;;7.90;;
4122;SDS011;2075;51.062;6.920;2022-10-17T00:40:38;10.60;;;7.20;;
4122;SDS011;2075;51.062;6.920;2022-10-17T00:43:24;13.17;;;6.67;;
4122;SDS011;2075;51.062;6.920;2022-10-17T00:46:10;14.53;;;7.00;;
4122;SDS011;2075;51.062;6.920;2022-10-17T00:48:57;8.50;;;6.90;;
4122;SDS011;2075;51.062;6.920;2022-10-17T00:51:47;10.43;;;6.47;;
4122;SDS011;2075;51.062;6.920;2022-10-17T00:54:37;9.03;;;6.80;;
4122;SDS011;2075;51.062;6.920;2022-10-17T00:57:26;9.03;;;6.10;;
4122;SDS011;2075;51.062;6.920;2022-10-17T01:00:15;10.33;;;5.90;;
4122;SDS011;2075;51.062;6.920;2022-10-17T01:03:01;9.47;;;5.60;;
4122;SDS011;2075;51.062;6.920;2022-10-17T01:05:47;10.53;;;5.77;;
4122;SDS011;2075;51.062;6.920;2022-10-17T01:08:32;9.30;;;6.10;;
4122;SDS011;2075;51.062;6.920;2022-10-17T01:11:20;10.63;;;6.63;;
4122;SDS011;2075;51.062;6.920;2022-10-17T01:14:22;8.47;;;6.10;;
4122;SDS011;2075;51.062;6.920;2022-10-17T01:17:17;7.67;;;5.80;;
4122;SDS011;2075;51.062;6.920;2022-10-17T01:20:20;7.73;;;5.70;;
4122;SDS011;2075;51.062;6.920;2022-10-17T01:30:31;7.80;;;5.60;;
4122;SDS011;2075;51.062;6.920;2022-10-17T01:33:31;7.83;;;5.23;;
4122;SDS011;2075;51.062;6.920;2022-10-17T01:36:31;8.03;;;5.43;;
4122;SDS011;2075;51.062;6.920;2022-10-17T01:39:22;8.93;;;5.90;;
4122;SDS011;2075;51.062;6.920;2022-10-17T01:42:15;8.67;;;5.80;;
4122;SDS011;2075;51.062;6.920;2022-10-17T01:45:05;8.20;;;5.73;;
4122;SDS011;2075;51.062;6.920;2022-10-17T01:47:58;10.47;;;6.00;;
4122;SDS011;2075;51.062;6.920;2022-10-17T01:50:51;7.50;;;6.17;;
4122;SDS011;2075;51.062;6.920;2022-10-17T01:53:44;8.73;;;6.03;;
4122;SDS011;2075;51.062;6.920;2022-10-17T01:56:34;9.40;;;6.40;;
4122;SDS011;2075;51.062;6.920;2022-10-17T01:59:22;9.13;;;6.73;;
4122;SDS011;2075;51.062;6.920;2022-10-17T02:02:10;12.17;;;7.27;;
4122;SDS011;2075;51.062;6.920;2022-10-17T02:04:58;10.87;;;6.97;;
4122;SDS011;2075;51.062;6.920;2022-10-17T02:07:47;13.87;;;6.23;;
4122;SDS011;2075;51.062;6.920;2022-10-17T02:10:35;9.70;;;6.77;;
4122;SDS011;2075;51.062;6.920;2022-10-17T02:13:28;16.90;;;7.43;;
4122;SDS011;2075;51.062;6.920;2022-10-17T02:16:28;9.87;;;7.30;;
4122;SDS011;2075;51.062;6.920;2022-10-17T02:19:27;10.53;;;7.03;;
4122;SDS011;2075;51.062;6.920;2022-10-17T02:22:23;13.77;;;6.40;;
4122;SDS011;2075;51.062;6.920;2022-10-17T02:25:17;9.80;;;6.20;;
4122;SDS011;2075;51.062;6.920;2022-10-17T02:28:14;17.77;;;6.67;;
4122;SDS011;2075;51.062;6.920;2022-10-17T02:31:06;8.97;;;6.30;;
4122;SDS011;2075;51.062;6.920;2022-10-17T02:33:54;13.20;;;5.40;;
4122;SDS011;2075;51.062;6.920;2022-10-17T02:36:44;16.70;;;6.30;;
4122;SDS011;2075;51.062;6.920;2022-10-17T02:39:34;6.30;;;5.70;;
4122;SDS011;2075;51.062;6.920;2022-10-17T02:42:22;8.90;;;5.97;;
4122;SDS011;2075;51.062;6.920;2022-10-17T02:45:10;7.43;;;5.63;;
4122;SDS011;2075;51.062;6.920;2022-10-17T02:47:56;6.63;;;5.60;;
4122;SDS011;2075;51.062;6.920;2022-10-17T02:50:48;9.63;;;5.73;;
4122;SDS011;2075;51.062;6.920;2022-10-17T02:53:43;12.40;;;5.70;;
4122;SDS011;2075;51.062;6.920;2022-10-17T02:56:36;7.10;;;5.50;;
4122;SDS011;2075;51.062;6.920;2022-10-17T02:59:27;11.30;;;5.97;;
4122;SDS011;2075;51.062;6.920;2022-10-17T03:02:14;6.30;;;5.50;;
4122;SDS011;2075;51.062;6.920;2022-10-17T03:04:59;7.67;;;5.40;;
4122;SDS011;2075;51.062;6.920;2022-10-17T03:07:44;6.37;;;5.30;;
4122;SDS011;2075;51.062;6.920;2022-10-17T03:10:30;12.57;;;5.07;;
4122;SDS011;2075;51.062;6.920;2022-10-17T03:13:15;6.10;;;5.50;;
4122;SDS011;2075;51.062;6.920;2022-10-17T03:16:03;9.80;;;5.23;;
4122;SDS011;2075;51.062;6.920;2022-10-17T03:18:49;12.00;;;6.03;;
4122;SDS011;2075;51.062;6.920;2022-10-17T03:21:35;6.27;;;5.50;;
4122;SDS011;2075;51.062;6.920;2022-10-17T03:24:21;5.67;;;4.67;;
4122;SDS011;2075;51.062;6.920;2022-10-17T03:27:07;5.50;;;4.90;;
4122;SDS011;2075;51.062;6.920;2022-10-17T03:29:53;10.80;;;5.57;;
4122;SDS011;2075;51.062;6.920;2022-10-17T03:32:40;11.93;;;5.20;;
4122;SDS011;2075;51.062;6.920;2022-10-17T03:35:26;6.03;;;5.10;;
4122;SDS011;2075;51.062;6.920;2022-10-17T03:38:12;6.50;;;4.90;;
4122;SDS011;2075;51.062;6.920;2022-10-17T03:40:57;5.67;;;5.07;;
4122;SDS011;2075;51.062;6.920;2022-10-17T03:43:43;7.47;;;4.70;;
4122;SDS011;2075;51.062;6.920;2022-10-17T03:46:29;6.17;;;5.20;;
4122;SDS011;2075;51.062;6.920;2022-10-17T03:49:18;6.70;;;5.53;;
4122;SDS011;2075;51.062;6.920;2022-10-17T03:52:03;6.23;;;5.27;;
4122;SDS011;2075;51.062;6.920;2022-10-17T03:54:49;8.07;;;5.03;;
4122;SDS011;2075;51.062;6.920;2022-10-17T03:57:35;6.00;;;5.10;;
4122;SDS011;2075;51.062;6.920;2022-10-17T04:00:24;5.90;;;5.30;;
4122;SDS011;2075;51.062;6.920;2022-10-17T04:03:13;7.50;;;5.53;;
4122;SDS011;2075;51.062;6.920;2022-10-17T04:06:00;11.57;;;5.43;;
4122;SDS011;2075;51.062;6.920;2022-10-17T04:08:48;7.20;;;5.30;;
4122;SDS011;2075;51.062;6.920;2022-10-17T04:11:39;8.70;;;5.23;;
4122;SDS011;2075;51.062;6.920;2022-10-17T04:14:24;7.07;;;5.73;;
4122;SDS011;2075;51.062;6.920;2022-10-17T04:17:10;6.70;;;5.30;;
4122;SDS011;2075;51.062;6.920;2022-10-17T04:19:55;8.57;;;5.17;;
4122;SDS011;2075;51.062;6.920;2022-10-17T04:22:42;7.30;;;5.10;;
4122;SDS011;2075;51.062;6.920;2022-10-17T04:25:28;5.77;;;4.77;;
4122;SDS011;2075;51.062;6.920;2022-10-17T04:28:13;10.33;;;5.33;;
4122;SDS011;2075;51.062;6.920;2022-10-17T04:31:00;6.83;;;5.50;;
4122;SDS011;2075;51.062;6.920;2022-10-17T04:33:53;8.97;;;6.20;;
4122;SDS011;2075;51.062;6.920;2022-10-17T04:36:38;7.77;;;5.27;;
4122;SDS011;2075;51.062;6.920;2022-10-17T04:39:25;14.17;;;5.60;;
4122;SDS011;2075;51.062;6.920;2022-10-17T04:42:11;5.80;;;4.97;;
4122;SDS011;2075;51.062;6.920;2022-10-17T04:44:57;8.63;;;5.27;;
4122;SDS011;2075;51.062;6.920;2022-10-17T04:47:44;5.60;;;5.10;;
4122;SDS011;2075;51.062;6.920;2022-10-17T04:50:29;5.63;;;5.10;;
4122;SDS011;2075;51.062;6.920;2022-10-17T04:53:37;6.70;;;5.27;;
4122;SDS011;2075;51.062;6.920;2022-10-17T04:56:24;7.47;;;5.90;;
4122;SDS011;2075;51.062;6.920;2022-10-17T04:59:09;7.43;;;5.30;;
4122;SDS011;2075;51.062;6.920;2022-10-17T05:01:57;9.70;;;5.53;;
4122;SDS011;2075;51.062;6.920;2022-10-17T05:04:42;4.93;;;4.53;;
4122;SDS011;2075;51.062;6.920;2022-10-17T05:07:28;7.00;;;4.73;;
4122;SDS011;2075;51.062;6.920;2022-10-17T05:10:25;7.33;;;5.27;;
4122;SDS011;2075;51.062;6.920;2022-10-17T05:13:13;5.87;;;5.00;;
4122;SDS011;2075;51.062;6.920;2022-10-17T05:15:59;12.07;;;5.47;;
4122;SDS011;2075;51.062;6.920;2022-10-17T05:18:46;11.87;;;5.70;;
4122;SDS011;2075;51.062;6.920;2022-10-17T05:21:33;5.90;;;5.30;;
4122;SDS011;2075;51.062;6.920;2022-10-17T05:24:20;9.80;;;5.40;;
4122;SDS011;2075;51.062;6.920;2022-10-17T05:27:05;7.57;;;5.27;;
4122;SDS011;2075;51.062;6.920;2022-10-17T05:29:52;5.70;;;5.07;;
4122;SDS011;2075;51.062;6.920;2022-10-17T05:32:44;6.47;;;5.07;;
4122;SDS011;2075;51.062;6.920;2022-10-17T05:35:29;5.97;;;4.90;;
4122;SDS011;2075;51.062;6.920;2022-10-17T05:38:15;6.83;;;6.10;;
4122;SDS011;2075;51.062;6.920;2022-10-17T05:41:03;16.13;;;4.87;;
4122;SDS011;2075;51.062;6.920;2022-10-17T05:43:50;6.63;;;5.03;;
4122;SDS011;2075;51.062;6.920;2022-10-17T05:46:40;10.43;;;6.00;;
4122;SDS011;2075;51.062;6.920;2022-10-17T05:49:26;10.73;;;5.57;;
4122;SDS011;2075;51.062;6.920;2022-10-17T05:52:12;15.23;;;5.53;;
4122;SDS011;2075;51.062;6.920;2022-10-17T05:55:14;7.33;;;5.20;;
4122;SDS011;2075;51.062;6.920;2022-10-17T05:58:02;6.30;;;4.93;;
4122;SDS011;2075;51.062;6.920;2022-10-17T06:00:56;18.40;;;5.47;;
4122;SDS011;2075;51.062;6.920;2022-10-17T06:03:45;10.47;;;5.47;;
4122;SDS011;2075;51.062;6.920;2022-10-17T06:06:31;9.10;;;4.67;;
4122;SDS011;2075;51.062;6.920;2022-10-17T06:09:16;5.30;;;4.80;;
4122;SDS011;2075;51.062;6.920;2022-10-17T06:12:05;8.57;;;5.40;;
4122;SDS011;2075;51.062;6.920;2022-10-17T06:14:51;7.13;;;5.50;;
4122;SDS011;2075;51.062;6.920;2022-10-17T06:17:37;20.93;;;5.33;;
4122;SDS011;2075;51.062;6.920;2022-10-17T06:20:24;5.80;;;5.20;;
4122;SDS011;2075;51.062;6.920;2022-10-17T06:23:10;9.87;;;5.87;;
4122;SDS011;2075;51.062;6.920;2022-10-17T06:26:15;9.77;;;4.97;;
4122;SDS011;2075;51.062;6.920;2022-10-17T06:29:01;10.30;;;6.03;;
4122;SDS011;2075;51.062;6.920;2022-10-17T06:31:51;7.17;;;5.57;;
4122;SDS011;2075;51.062;6.920;2022-10-17T06:34:38;16.73;;;5.60;;
4122;SDS011;2075;51.062;6.920;2022-10-17T06:37:25;11.87;;;5.03;;
4122;SDS011;2075;51.062;6.920;2022-10-17T06:40:11;7.82;;;5.60;;
4122;SDS011;2075;51.062;6.920;2022-10-17T06:42:58;8.85;;;4.88;;
4122;SDS011;2075;51.062;6.920;2022-10-17T06:46:04;5.43;;;4.63;;
4122;SDS011;2075;51.062;6.920;2022-10-17T06:48:54;8.97;;;4.90;;
4122;SDS011;2075;51.062;6.920;2022-10-17T06:52:06;6.43;;;4.40;;
4122;SDS011;2075;51.062;6.920;2022-10-17T06:55:09;9.68;;;5.03;;
4122;SDS011;2075;51.062;6.920;2022-10-17T06:58:05;6.47;;;4.80;;
4122;SDS011;2075;51.062;6.920;2022-10-17T07:01:10;8.53;;;5.50;;
4122;SDS011;2075;51.062;6.920;2022-10-17T07:03:57;8.20;;;4.87;;
4122;SDS011;2075;51.062;6.920;2022-10-17T07:06:43;6.70;;;4.77;;
4122;SDS011;2075;51.062;6.920;2022-10-17T07:09:33;5.40;;;4.90;;
4122;SDS011;2075;51.062;6.920;2022-10-17T07:12:20;6.10;;;4.70;;
4122;SDS011;2075;51.062;6.920;2022-10-17T07:15:07;7.93;;;4.30;;
4122;SDS011;2075;51.062;6.920;2022-10-17T07:17:53;7.43;;;4.30;;
4122;SDS011;2075;51.062;6.920;2022-10-17T07:20:38;7.27;;;5.37;;
4122;SDS011;2075;51.062;6.920;2022-10-17T07:23:24;11.67;;;4.90;;
4122;SDS011;2075;51.062;6.920;2022-10-17T07:26:12;6.90;;;5.60;;
4122;SDS011;2075;51.062;6.920;2022-10-17T07:29:01;8.88;;;5.20;;
4122;SDS011;2075;51.062;6.920;2022-10-17T07:32:15;12.73;;;4.60;;
4122;SDS011;2075;51.062;6.920;2022-10-17T07:35:00;6.57;;;4.23;;
4122;SDS011;2075;51.062;6.920;2022-10-17T07:37:46;8.30;;;4.40;;
4122;SDS011;2075;51.062;6.920;2022-10-17T07:40:34;7.03;;;4.70;;
4122;SDS011;2075;51.062;6.920;2022-10-17T07:43:20;11.47;;;4.53;;
4122;SDS011;2075;51.062;6.920;2022-10-17T07:46:08;13.83;;;4.70;;
4122;SDS011;2075;51.062;6.920;2022-10-17T07:48:54;6.97;;;4.23;;
4122;SDS011;2075;51.062;6.920;2022-10-17T07:51:40;10.50;;;4.67;;
4122;SDS011;2075;51.062;6.920;2022-10-17T07:54:26;8.03;;;4.33;;
4122;SDS011;2075;51.062;6.920;2022-10-17T07:57:11;6.33;;;3.97;;
4122;SDS011;2075;51.062;6.920;2022-10-17T07:59:57;7.77;;;4.93;;
4122;SDS011;2075;51.062;6.920;2022-10-17T08:02:44;5.17;;;3.90;;
4122;SDS011;2075;51.062;6.920;2022-10-17T08:05:29;4.80;;;3.77;;
4122;SDS011;2075;51.062;6.920;2022-10-17T08:08:15;9.20;;;4.30;;
4122;SDS011;2075;51.062;6.920;2022-10-17T08:11:02;5.23;;;4.43;;
4122;SDS011;2075;51.062;6.920;2022-10-17T08:13:48;10.47;;;5.00;;
4122;SDS011;2075;51.062;6.920;2022-10-17T08:16:33;12.60;;;5.10;;
4122;SDS011;2075;51.062;6.920;2022-10-17T08:19:20;15.40;;;4.60;;
4122;SDS011;2075;51.062;6.920;2022-10-17T08:22:06;5.37;;;4.00;;
4122;SDS011;2075;51.062;6.920;2022-10-17T08:24:52;7.17;;;4.07;;
4122;SDS011;2075;51.062;6.920;2022-10-17T08:27:37;4.93;;;4.50;;
4122;SDS011;2075;51.062;6.920;2022-10-17T08:30:23;7.43;;;4.90;;
4122;SDS011;2075;51.062;6.920;2022-10-17T08:33:08;8.00;;;4.40;;
4122;SDS011;2075;51.062;6.920;2022-10-17T08:35:55;12.83;;;4.43;;
4122;SDS011;2075;51.062;6.920;2022-10-17T08:38:42;8.33;;;4.90;;
4122;SDS011;2075;51.062;6.920;2022-10-17T08:41:33;5.00;;;3.80;;
4122;SDS011;2075;51.062;6.920;2022-10-17T08:44:32;6.87;;;4.37;;
4122;SDS011;2075;51.062;6.920;2022-10-17T08:47:26;5.63;;;4.30;;
4122;SDS011;2075;51.062;6.920;2022-10-17T08:50:21;9.10;;;3.90;;
4122;SDS011;2075;51.062;6.920;2022-10-17T08:53:14;6.47;;;4.00;;
4122;SDS011;2075;51.062;6.920;2022-10-17T08:56:04;9.00;;;5.13;;
4122;SDS011;2075;51.062;6.920;2022-10-17T08:58:57;9.60;;;4.33;;
4122;SDS011;2075;51.062;6.920;2022-10-17T09:01:44;6.80;;;4.40;;
4122;SDS011;2075;51.062;6.920;2022-10-17T09:04:46;6.70;;;3.70;;
4122;SDS011;2075;51.062;6.920;2022-10-17T09:07:46;5.20;;;3.77;;
4122;SDS011;2075;51.062;6.920;2022-10-17T09:10:41;5.03;;;4.07;;
4122;SDS011;2075;51.062;6.920;2022-10-17T09:13:39;6.57;;;3.90;;
4122;SDS011;2075;51.062;6.920;2022-10-17T09:16:44;5.20;;;3.70;;
4122;SDS011;2075;51.062;6.920;2022-10-17T09:19:44;9.40;;;4.70;;
4122;SDS011;2075;51.062;6.920;2022-10-17T09:22:46;6.63;;;4.20;;
4122;SDS011;2075;51.062;6.920;2022-10-17T09:25:40;7.70;;;4.13;;
4122;SDS011;2075;51.062;6.920;2022-10-17T09:28:28;5.33;;;4.33;;
4122;SDS011;2075;51.062;6.920;2022-10-17T09:31:17;8.07;;;4.77;;
4122;SDS011;2075;51.062;6.920;2022-10-17T09:34:07;10.40;;;4.03;;
4122;SDS011;2075;51.062;6.920;2022-10-17T09:36:54;9.30;;;4.67;;
4122;SDS011;2075;51.062;6.920;2022-10-17T09:39:42;6.30;;;4.20;;
4122;SDS011;2075;51.062;6.920;2022-10-17T09:42:30;12.03;;;4.27;;
4122;SDS011;2075;51.062;6.920;2022-10-17T09:45:18;9.40;;;4.50;;
4122;SDS011;2075;51.062;6.920;2022-10-17T09:48:10;13.30;;;4.40;;
4122;SDS011;2075;51.062;6.920;2022-10-17T09:51:03;10.03;;;4.50;;
4122;SDS011;2075;51.062;6.920;2022-10-17T09:53:50;16.20;;;4.60;;
4122;SDS011;2075;51.062;6.920;2022-10-17T10:00:19;9.80;;;4.40;;
4122;SDS011;2075;51.062;6.920;2022-10-17T10:03:16;6.90;;;3.93;;
4122;SDS011;2075;51.062;6.920;2022-10-17T10:06:03;5.93;;;4.60;;
4122;SDS011;2075;51.062;6.920;2022-10-17T10:09:29;8.47;;;4.37;;
4122;SDS011;2075;51.062;6.920;2022-10-17T10:12:16;7.00;;;4.03;;
4122;SDS011;2075;51.062;6.920;2022-10-17T10:15:26;6.30;;;4.30;;
4122;SDS011;2075;51.062;6.920;2022-10-17T10:18:30;8.07;;;4.07;;
4122;SDS011;2075;51.062;6.920;2022-10-17T10:21:18;7.30;;;4.03;;
4122;SDS011;2075;51.062;6.920;2022-10-17T10:24:09;4.37;;;3.60;;
4122;SDS011;2075;51.062;6.920;2022-10-17T10:26:58;8.00;;;5.40;;
4122;SDS011;2075;51.062;6.920;2022-10-17T10:29:47;10.90;;;4.67;;
4122;SDS011;2075;51.062;6.920;2022-10-17T10:32:34;8.20;;;4.00;;
4122;SDS011;2075;51.062;6.920;2022-10-17T10:35:21;7.10;;;4.27;;
4122;SDS011;2075;51.062;6.920;2022-10-17T10:38:14;6.10;;;4.20;;
4122;SDS011;2075;51.062;6.920;2022-10-17T10:41:02;5.07;;;4.10;;
4122;SDS011;2075;51.062;6.920;2022-10-17T10:43:51;9.73;;;4.50;;
4122;SDS011;2075;51.062;6.920;2022-10-17T10:46:38;6.83;;;4.30;;
4122;SDS011;2075;51.062;6.920;2022-10-17T10:49:27;6.43;;;4.07;;
4122;SDS011;2075;51.062;6.920;2022-10-17T10:52:16;7.87;;;4.77;;
4122;SDS011;2075;51.062;6.920;2022-10-17T10:55:15;6.03;;;4.10;;
4122;SDS011;2075;51.062;6.920;2022-10-17T10:58:11;4.53;;;4.07;;
4122;SDS011;2075;51.062;6.920;2022-10-17T11:01:08;6.37;;;4.40;;
4122;SDS011;2075;51.062;6.920;2022-10-17T11:04:05;8.90;;;4.40;;
4122;SDS011;2075;51.062;6.920;2022-10-17T16:39:15;12.75;;;6.80;;
4122;SDS011;2075;51.062;6.920;2022-10-17T16:42:00;14.33;;;7.43;;
4122;SDS011;2075;51.062;6.920;2022-10-17T16:44:46;15.90;;;7.73;;
4122;SDS011;2075;51.062;6.920;2022-10-17T16:47:31;12.50;;;6.07;;
4122;SDS011;2075;51.062;6.920;2022-10-17T16:50:17;10.17;;;6.87;;
4122;SDS011;2075;51.062;6.920;2022-10-17T16:53:02;17.00;;;6.53;;
4122;SDS011;2075;51.062;6.920;2022-10-17T16:55:58;11.60;;;6.20;;
4122;SDS011;2075;51.062;6.920;2022-10-17T16:58:44;10.10;;;5.90;;
4122;SDS011;2075;51.062;6.920;2022-10-17T17:01:30;9.33;;;6.03;;
4122;SDS011;2075;51.062;6.920;2022-10-17T17:04:15;7.10;;;5.47;;
4122;SDS011;2075;51.062;6.920;2022-10-17T17:07:00;10.93;;;8.13;;
4122;SDS011;2075;51.062;6.920;2022-10-17T17:09:46;19.63;;;11.13;;
4122;SDS011;2075;51.062;6.920;2022-10-17T17:12:33;12.07;;;7.50;;
4122;SDS011;2075;51.062;6.920;2022-10-17T17:15:19;12.10;;;6.43;;
4122;SDS011;2075;51.062;6.920;2022-10-17T17:18:04;10.23;;;5.00;;
4122;SDS011;2075;51.062;6.920;2022-10-17T17:20:50;17.27;;;6.30;;
4122;SDS011;2075;51.062;6.920;2022-10-17T17:23:36;10.60;;;6.23;;
4122;SDS011;2075;51.062;6.920;2022-10-17T17:26:22;10.47;;;6.00;;
4122;SDS011;2075;51.062;6.920;2022-10-17T17:29:09;9.27;;;6.63;;
4122;SDS011;2075;51.062;6.920;2022-10-17T17:31:55;9.30;;;5.07;;
4122;SDS011;2075;51.062;6.920;2022-10-17T17:34:41;7.60;;;5.33;;
4122;SDS011;2075;51.062;6.920;2022-10-17T17:37:26;7.23;;;5.00;;
4122;SDS011;2075;51.062;6.920;2022-10-17T17:40:12;7.93;;;5.90;;
4122;SDS011;2075;51.062;6.920;2022-10-17T17:42:57;8.40;;;6.20;;
4122;SDS011;2075;51.062;6.920;2022-10-17T17:45:47;13.00;;;7.93;;
4122;SDS011;2075;51.062;6.920;2022-10-17T17:48:32;8.47;;;6.60;;
4122;SDS011;2075;51.062;6.920;2022-10-17T17:51:21;8.80;;;5.50;;
4122;SDS011;2075;51.062;6.920;2022-10-17T17:54:08;10.63;;;5.57;;
4122;SDS011;2075;51.062;6.920;2022-10-17T17:56:55;9.40;;;5.50;;
4122;SDS011;2075;51.062;6.920;2022-10-17T17:59:40;12.63;;;6.30;;
4122;SDS011;2075;51.062;6.920;2022-10-17T18:02:29;8.93;;;5.43;;
4122;SDS011;2075;51.062;6.920;2022-10-17T18:05:14;8.63;;;5.13;;
4122;SDS011;2075;51.062;6.920;2022-10-17T18:07:59;9.37;;;6.10;;
4122;SDS011;2075;51.062;6.920;2022-10-17T18:10:48;9.37;;;6.10;;
4122;SDS011;2075;51.062;6.920;2022-10-17T18:13:37;10.13;;;5.97;;
4122;SDS011;2075;51.062;6.920;2022-10-17T18:16:23;8.80;;;6.27;;
4122;SDS011;2075;51.062;6.920;2022-10-17T18:19:10;6.43;;;5.63;;
4122;SDS011;2075;51.062;6.920;2022-10-17T18:21:56;9.10;;;6.40;;
4122;SDS011;2075;51.062;6.920;2022-10-17T18:24:41;12.97;;;6.13;;
4122;SDS011;2075;51.062;6.920;2022-10-17T18:27:27;8.07;;;5.90;;
4122;SDS011;2075;51.062;6.920;2022-10-17T18:30:12;9.30;;;5.70;;
4122;SDS011;2075;51.062;6.920;2022-10-17T18:32:59;11.20;;;6.60;;
4122;SDS011;2075;51.062;6.920;2022-10-17T18:35:45;11.57;;;5.77;;
4122;SDS011;2075;51.062;6.920;2022-10-17T18:38:31;9.03;;;6.80;;
4122;SDS011;2075;51.062;6.920;2022-10-17T18:41:16;13.00;;;6.77;;
4122;SDS011;2075;51.062;6.920;2022-10-17T18:44:03;6.37;;;5.60;;
4122;SDS011;2075;51.062;6.920;2022-10-17T18:46:48;10.17;;;6.73;;
4122;SDS011;2075;51.062;6.920;2022-10-17T18:49:33;9.47;;;7.33;;
4122;SDS011;2075;51.062;6.920;2022-10-17T18:52:21;7.13;;;5.87;;
4122;SDS011;2075;51.062;6.920;2022-10-17T18:55:08;9.00;;;5.40;;
4122;SDS011;2075;51.062;6.920;2022-10-17T18:57:53;6.53;;;5.10;;
4122;SDS011;2075;51.062;6.920;2022-10-17T19:00:38;11.37;;;5.37;;
4122;SDS011;2075;51.062;6.920;2022-10-17T19:03:24;9.07;;;5.87;;
4122;SDS011;2075;51.062;6.920;2022-10-17T19:06:10;11.10;;;6.40;;
4122;SDS011;2075;51.062;6.920;2022-10-17T19:08:59;6.90;;;5.83;;
4122;SDS011;2075;51.062;6.920;2022-10-17T19:11:46;5.73;;;4.50;;
4122;SDS011;2075;51.062;6.920;2022-10-17T19:14:31;7.50;;;4.47;;
4122;SDS011;2075;51.062;6.920;2022-10-17T19:17:17;7.73;;;4.33;;
4122;SDS011;2075;51.062;6.920;2022-10-17T19:20:07;5.67;;;3.97;;
4122;SDS011;2075;51.062;6.920;2022-10-17T19:22:53;5.30;;;4.60;;
4122;SDS011;2075;51.062;6.920;2022-10-17T19:25:40;4.50;;;4.10;;
4122;SDS011;2075;51.062;6.920;2022-10-17T19:28:26;7.00;;;4.30;;
4122;SDS011;2075;51.062;6.920;2022-10-17T19:31:11;4.50;;;4.00;;
4122;SDS011;2075;51.062;6.920;2022-10-17T19:33:57;5.50;;;3.90;;
4122;SDS011;2075;51.062;6.920;2022-10-17T19:36:43;9.87;;;3.90;;
4122;SDS011;2075;51.062;6.920;2022-10-17T19:39:29;9.87;;;5.00;;
4122;SDS011;2075;51.062;6.920;2022-10-17T19:42:17;6.70;;;5.13;;
4122;SDS011;2075;51.062;6.920;2022-10-17T19:45:02;14.13;;;5.37;;
4122;SDS011;2075;51.062;6.920;2022-10-17T19:47:48;5.17;;;4.70;;
4122;SDS011;2075;51.062;6.920;2022-10-17T19:50:34;7.90;;;4.30;;
4122;SDS011;2075;51.062;6.920;2022-10-17T19:53:21;8.47;;;4.30;;
4122;SDS011;2075;51.062;6.920;2022-10-17T19:56:07;6.83;;;4.40;;
4122;SDS011;2075;51.062;6.920;2022-10-17T19:58:55;4.93;;;4.43;;
4122;SDS011;2075;51.062;6.920;2022-10-17T20:01:41;6.17;;;4.50;;
4122;SDS011;2075;51.062;6.920;2022-10-17T20:04:27;6.67;;;3.80;;
4122;SDS011;2075;51.062;6.920;2022-10-17T20:07:12;6.20;;;4.23;;
4122;SDS011;2075;51.062;6.920;2022-10-17T20:09:58;5.40;;;4.40;;
4122;SDS011;2075;51.062;6.920;2022-10-17T20:12:43;14.20;;;5.80;;
4122;SDS011;2075;51.062;6.920;2022-10-17T20:15:30;11.77;;;5.90;;
4122;SDS011;2075;51.062;6.920;2022-10-17T20:18:15;7.03;;;5.47;;
4122;SDS011;2075;51.062;6.920;2022-10-17T20:21:01;6.87;;;5.30;;
4122;SDS011;2075;51.062;6.920;2022-10-17T20:23:48;3.70;;;3.27;;
4122;SDS011;2075;51.062;6.920;2022-10-17T20:26:34;3.73;;;3.43;;
4122;SDS011;2075;51.062;6.920;2022-10-17T20:29:19;5.13;;;3.30;;
4122;SDS011;2075;51.062;6.920;2022-10-17T20:32:07;3.97;;;3.67;;
4122;SDS011;2075;51.062;6.920;2022-10-17T20:34:53;4.07;;;3.77;;
4122;SDS011;2075;51.062;6.920;2022-10-17T20:37:38;5.23;;;3.53;;
4122;SDS011;2075;51.062;6.920;2022-10-17T20:40:24;6.27;;;3.77;;
4122;SDS011;2075;51.062;6.920;2022-10-17T20:43:10;3.83;;;3.50;;
4122;SDS011;2075;51.062;6.920;2022-10-17T20:45:57;4.57;;;3.33;;
4122;SDS011;2075;51.062;6.920;2022-10-17T20:48:43;3.80;;;3.43;;
4122;SDS011;2075;51.062;6.920;2022-10-17T20:51:29;4.20;;;3.40;;
4122;SDS011;2075;51.062;6.920;2022-10-17T20:54:14;3.40;;;3.10;;
4122;SDS011;2075;51.062;6.920;2022-10-17T20:57:02;4.00;;;3.70;;
4122;SDS011;2075;51.062;6.920;2022-10-17T20:59:48;5.20;;;3.83;;
4122;SDS011;2075;51.062;6.920;2022-10-17T21:02:35;6.93;;;3.20;;
4122;SDS011;2075;51.062;6.920;2022-10-17T21:05:22;4.43;;;3.47;;
4122;SDS011;2075;51.062;6.920;2022-10-17T21:08:07;7.10;;;3.77;;
4122;SDS011;2075;51.062;6.920;2022-10-17T21:10:53;6.70;;;3.90;;
4122;SDS011;2075;51.062;6.920;2022-10-17T21:13:38;8.30;;;4.17;;
4122;SDS011;2075;51.062;6.920;2022-10-17T21:16:24;6.87;;;4.20;;
4122;SDS011;2075;51.062;6.920;2022-10-17T21:19:10;7.73;;;4.17;;
4122;SDS011;2075;51.062;6.920;2022-10-17T21:21:58;5.83;;;3.70;;
4122;SDS011;2075;51.062;6.920;2022-10-17T21:24:43;4.73;;;3.90;;
4122;SDS011;2075;51.062;6.920;2022-10-17T21:27:28;7.37;;;4.17;;
4122;SDS011;2075;51.062;6.920;2022-10-17T21:30:14;5.20;;;3.80;;
4122;SDS011;2075;51.062;6.920;2022-10-17T21:32:59;4.67;;;4.07;;
4122;SDS011;2075;51.062;6.920;2022-10-17T21:35:45;7.70;;;4.00;;
4122;SDS011;2075;51.062;6.920;2022-10-17T21:38:32;8.53;;;4.63;;
4122;SDS011;2075;51.062;6.920;2022-10-17T21:41:19;9.83;;;4.60;;
4122;SDS011;2075;51.062;6.920;2022-10-17T21:44:07;10.93;;;5.60;;
4122;SDS011;2075;51.062;6.920;2022-10-17T21:46:55;7.20;;;6.10;;
4122;SDS011;2075;51.062;6.920;2022-10-17T21:49:41;7.63;;;5.40;;
4122;SDS011;2075;51.062;6.920;2022-10-17T21:52:26;6.90;;;4.50;;
4122;SDS011;2075;51.062;6.920;2022-10-17T21:55:13;6.40;;;5.80;;
4122;SDS011;2075;51.062;6.920;2022-10-17T21:57:58;9.13;;;4.57;;
4122;SDS011;2075;51.062;6.920;2022-10-17T22:00:43;5.63;;;4.77;;
4122;SDS011;2075;51.062;6.920;2022-10-17T22:03:30;5.53;;;4.87;;
4122;SDS011;2075;51.062;6.920;2022-10-17T22:06:17;9.10;;;5.40;;
4122;SDS011;2075;51.062;6.920;2022-10-17T22:09:04;7.00;;;3.97;;
4122;SDS011;2075;51.062;6.920;2022-10-17T22:11:53;4.37;;;3.90;;
4122;SDS011;2075;51.062;6.920;2022-10-17T22:14:40;5.70;;;4.63;;
4122;SDS011;2075;51.062;6.920;2022-10-17T22:17:25;4.70;;;4.30;;
4122;SDS011;2075;51.062;6.920;2022-10-17T22:20:10;5.93;;;4.00;;
4122;SDS011;2075;51.062;6.920;2022-10-17T22:22:56;5.00;;;4.33;;
4122;SDS011;2075;51.062;6.920;2022-10-17T22:25:41;6.93;;;4.17;;
4122;SDS011;2075;51.062;6.920;2022-10-17T22:28:28;5.60;;;4.53;;
4122;SDS011;2075;51.062;6.920;2022-10-17T22:31:14;4.67;;;4.27;;
4122;SDS011;2075;51.062;6.920;2022-10-17T22:33:59;4.87;;;4.37;;
4122;SDS011;2075;51.062;6.920;2022-10-17T22:36:44;5.17;;;4.57;;
4122;SDS011;2075;51.062;6.920;2022-10-17T22:39:31;6.23;;;4.43;;
4122;SDS011;2075;51.062;6.920;2022-10-17T22:42:17;5.93;;;4.83;;
4122;SDS011;2075;51.062;6.920;2022-10-17T22:45:04;5.93;;;4.97;;
4122;SDS011;2075;51.062;6.920;2022-10-17T22:47:50;8.27;;;5.53;;
4122;SDS011;2075;51.062;6.920;2022-10-17T22:50:38;6.87;;;5.00;;
4122;SDS011;2075;51.062;6.920;2022-10-17T22:53:24;7.17;;;5.40;;
4122;SDS011;2075;51.062;6.920;2022-10-17T22:56:10;6.63;;;5.07;;
4122;SDS011;2075;51.062;6.920;2022-10-17T22:58:58;7.30;;;5.37;;
4122;SDS011;2075;51.062;6.920;2022-10-17T23:01:45;9.90;;;5.20;;
4122;SDS011;2075;51.062;6.920;2022-10-17T23:04:30;6.83;;;5.60;;
4122;SDS011;2075;51.062;6.920;2022-10-17T23:07:16;6.73;;;5.53;;